Date,TemperatureHighF,TemperatureAvgF,TemperatureLowF,DewpointHighF,DewpointAvgF,DewpointLowF,HumidityHigh,HumidityAvg,HumidityLow,PressureMaxIn,PressureMinIn,WindSpeedMaxMPH,WindSpeedAvgMPH,GustSpeedMaxMPH,PrecipitationSumIn
2013-1-1,39,36,27,30,26,16,73,67,58,29.95,29.77,24,4,24,0.04
2013-1-2,30,27,22,20,16,12,70,63,57,30.11,29.94,22,2,23,0.01
2013-1-3,29,25,21,20,17,14,80,72,59,30.16,30.02,15,1,15,0.00
2013-1-4,37,31,23,26,22,17,83,70,57,30.04,29.88,23,3,23,0.00
2013-1-5,42,33,24,28,23,19,84,66,53,30.24,29.93,28,3,28,0.00
2013-1-6,44,34,25,35,28,21,91,81,61,30.19,29.93,17,1,17,0.00
2013-1-7,42,34,22,33,26,17,92,75,53,30.37,29.99,14,1,15,0.00
2013-1-8,48,33,20,36,27,17,94,79,56,30.40,30.30,22,2,23,0.00
2013-1-9,48,37,23,41,32,21,100,81,60,30.35,30.07,23,2,24,0.00
2013-1-10,47,42,36,34,29,27,73,60,50,30.51,30.15,23,3,24,0.00
2013-1-11,47,38,28,46,33,23,95,83,69,30.50,30.08,8,0,8,0.47
2013-1-12,47,43,41,46,42,40,96,95,95,30.14,30.02,10,0,10,0.11
2013-1-13,49,44,40,48,43,38,97,96,95,30.14,29.98,15,1,15,0.02
2013-1-14,56,48,36,54,45,31,97,88,64,30.24,29.90,14,2,14,0.06
2013-1-15,38,36,34,32,30,28,91,79,69,30.29,30.16,9,1,9,0.13
2013-1-16,36,35,33,35,33,29,95,93,77,30.19,29.74,14,1,14,0.80
2013-1-17,42,38,33,34,32,24,95,79,66,30.06,29.86,15,1,16,0.00
2013-1-18,33,27,17,24,14,8,77,57,45,30.41,29.97,15,3,15,0.00
2013-1-19,47,37,17,36,28,11,86,70,56,30.40,29.90,32,5,33,0.00
2013-1-20,54,44,30,36,29,15,76,57,34,29.97,29.63,33,6,36,0.00
2013-1-21,32,28,25,26,17,10,90,65,47,30.08,29.78,16,1,18,0.00
2013-1-22,26,20,13,24,7,-3,89,58,44,30.12,29.76,30,5,30,0.00
2013-1-23,19,15,11,3,0,-3,61,52,44,30.19,30.10,22,4,26,0.00
2013-1-24,21,15,4,7,3,-3,77,57,45,30.32,30.08,24,3,27,0.00
2013-1-25,24,19,12,16,8,2,85,64,48,30.36,30.01,15,2,15,0.00
2013-1-26,25,21,17,16,11,5,87,66,51,30.30,29.98,19,3,19,0.00
2013-1-27,31,23,12,15,11,5,81,60,45,30.46,30.30,19,2,19,0.00
2013-1-28,35,27,15,33,22,8,93,84,69,30.45,29.96,12,1,12,0.28
2013-1-29,40,36,33,36,34,31,94,91,84,30.14,29.95,8,0,8,0.02
2013-1-30,57,51,37,56,50,35,96,95,90,30.08,29.41,35,6,35,0.00
2013-1-31,58,46,29,56,34,13,95,65,41,29.70,29.04,46,12,52,0.55
2013-2-1,32,28,24,16,12,7,59,51,43,30.16,29.70,29,5,29,0.00
2013-2-2,30,25,19,20,12,8,84,58,43,30.26,30.04,22,4,23,0.00
2013-2-3,30,26,23,22,19,16,88,77,58,30.04,29.74,12,1,12,0.00
2013-2-4,30,26,21,20,14,10,83,61,46,29.95,29.74,28,4,28,0.00
2013-2-5,30,28,23,27,23,14,90,84,67,29.96,29.87,10,0,10,0.00
2013-2-6,39,32,27,29,24,10,92,72,45,30.31,29.88,24,2,24,0.05
2013-2-7,30,27,24,23,13,6,77,55,42,30.49,30.30,14,1,14,0.00
2013-2-8,35,32,23,31,29,22,94,89,72,30.33,29.49,20,4,20,0.21
2013-2-9,25,23,19,25,19,13,100,86,76,30.24,29.61,0,0,0,0.00
2013-2-10,31,21,14,22,15,9,85,76,61,30.43,30.24,6,0,7,0.07
2013-2-11,45,34,14,44,33,11,100,94,85,30.32,29.63,24,2,24,1.36
2013-2-12,43,38,34,38,31,25,96,76,57,29.91,29.66,15,4,30,0.11
2013-2-13,41,33,22,30,25,19,91,73,54,29.91,29.65,9,0,10,0.00
2013-2-14,42,34,28,33,28,24,94,79,50,29.98,29.67,11,0,11,0.07
2013-2-15,46,36,25,38,31,22,95,84,70,30.00,29.88,21,2,21,0.00
2013-2-16,38,34,29,36,28,22,92,79,64,29.91,29.64,15,2,15,0.01
2013-2-17,30,25,16,24,12,5,88,59,41,29.87,29.54,31,7,31,0.00
2013-2-18,31,23,16,14,10,5,70,57,46,30.19,29.86,30,4,32,0.00
2013-2-19,47,35,19,43,30,12,94,82,65,30.20,29.61,28,3,29,0.34
2013-2-20,38,31,24,36,19,12,92,62,49,29.90,29.63,31,7,31,0.00
2013-2-21,34,27,23,20,16,13,73,62,53,30.23,29.88,30,5,30,0.00
2013-2-22,36,31,25,28,23,17,82,73,65,30.37,30.22,14,2,16,0.00
2013-2-23,40,36,33,38,33,27,95,89,81,30.25,29.76,14,2,14,0.24
2013-2-24,41,36,32,38,33,29,95,90,75,29.89,29.68,18,2,18,0.01
2013-2-25,44,37,31,31,29,26,90,72,54,30.21,29.89,14,1,14,0.02
2013-2-26,42,37,33,34,31,29,96,80,64,30.28,29.92,16,1,16,0.13
2013-2-27,47,42,36,46,41,34,96,94,87,29.91,29.47,25,4,25,1.32
2013-2-28,47,40,36,42,37,33,95,89,74,29.59,29.50,15,1,15,0.42
2013-3-1,45,38,33,36,32,30,93,80,59,29.71,29.53,15,1,15,0.24
2013-3-2,39,36,33,30,27,26,80,71,62,29.72,29.63,13,2,15,0.07
2013-3-3,37,32,29,26,24,22,79,71,57,29.67,29.60,19,3,20,0.06
2013-3-4,42,34,29,26,23,20,72,64,50,29.82,29.66,29,5,29,0.00
2013-3-5,46,37,31,30,26,22,76,65,50,29.99,29.82,17,2,17,0.00
2013-3-6,41,37,30,35,32,25,92,82,73,29.98,29.82,25,5,25,0.01
2013-3-7,36,34,32,32,31,30,94,89,81,29.99,29.85,18,5,18,0.04
2013-3-8,38,34,31,33,31,29,95,90,73,30.10,29.91,16,2,16,0.05
2013-3-9,49,39,28,29,27,23,85,64,38,30.30,30.10,15,2,15,0.07
2013-3-10,46,34,25,36,30,22,93,82,67,30.37,30.28,11,1,13,0.60
2013-3-11,54,42,31,45,38,28,96,86,70,30.30,30.08,17,2,18,0.14
2013-3-12,54,51,45,52,49,43,95,92,85,30.09,29.65,37,6,37,0.03
2013-3-13,50,42,34,43,32,27,94,69,44,29.83,29.74,22,3,22,0.01
2013-3-14,39,33,30,30,19,13,75,57,45,29.88,29.79,30,5,33,0.03
2013-3-15,44,36,28,30,20,13,72,54,38,29.91,29.68,27,4,27,0.09
2013-3-16,38,34,31,29,25,18,90,71,49,29.86,29.73,20,1,22,0.02
2013-3-17,38,33,29,29,21,13,90,63,44,30.26,29.85,15,2,16,0.00
2013-3-18,35,31,26,30,18,12,92,59,44,30.39,30.03,15,2,16,0.09
2013-3-19,39,36,32,37,34,30,96,93,89,30.03,29.60,20,3,20,0.01
2013-3-20,45,36,29,32,23,19,91,61,43,29.83,29.74,31,4,31,0.05
2013-3-21,34,31,27,28,26,22,89,81,73,29.80,29.60,11,1,11,0.03
2013-3-22,42,34,27,26,21,16,74,60,43,29.82,29.66,25,4,26,0.05
2013-3-23,47,38,32,27,24,22,68,56,42,29.86,29.71,32,6,35,0.01
2013-3-24,45,37,27,28,24,19,76,59,46,29.90,29.68,15,1,15,0.05
2013-3-25,41,37,32,33,30,26,90,77,65,29.71,29.40,19,2,19,0.00
2013-3-26,50,39,35,34,31,29,84,72,49,29.70,29.51,12,2,14,0.00